Chiseldon, United Kingdom
Current Conditions -  °F | °C
As of 3:29 AM on Sunday 23 Nov 2014 (Local Time) from EGVA Reporting Station
Broken Clouds Broken Clouds  
Wind Chill: 45°   Ceiling: 5500
Heat Index: 48°   Visibility: 6mi
Dew Point: 48°   Wind: 7mph
Humidity: 100%   Direction: 350°N
Pressure: 29.98"   Gusts: NA
Location:  51.52°N, 1.73°W
Report Text: EGVA 230329Z AUTO 35006KT 9999 SCT043 BKN055 09/09 A2998 RMK AO2 RAE0322DZB0259E0303B0322E0329 $
Loading
Personal Weather Stations






























Interactive Weather Map New forecast layout! Learn more

10-Day Weather Forecast

Advertisements
Track Severe Weather on mobile